Timberville, VA (22853)

12:30 PM EST on February 12, 2016 (GMT -0500)
East of Timberville on 211 AcuRite Pro | | Change Station
CLOSE
Current Station
Personal Weather Station
Location: Timberville, VA
Elevation: 984 ft
Nearby Weather Stations

Elev 984 ft 38.63 °N, 78.76 °W | Updated 14 minutes ago

Overcast
Overcast
28.2 °F
Feels Like 20 °F
N
8.9
Wind Variable Wind from SW

Today
High -- | Low -- °F
--% Chance of Precip.
Yesterday
High -- | Low -- °F
Precip. -- in
Pressure 30.09 in
Visibility 10.0 miles
Clouds Mostly Cloudy 8500 ft
Overcast 10000 ft
Windchill 20 °F
Dew Point 10 °F
Humidity 46%
Rainfall 0.00 in
Snow Depth Not available.
7:10 AM 5:49 PM
Waxing Crescent, 22% visible
METAR KLUA 121715Z AUTO 19005KT 10SM BKN085 OVC100 M02/M13 A3009 RMK AO2
Pressure 30.09 in
Visibility 10.0 miles
Clouds Mostly Cloudy 8500 ft
Overcast 10000 ft
Windchill 20 °F
Dew Point 10 °F
Humidity 46%
Rainfall 0.00 in
Snow Depth Not available.
7:10 AM 5:49 PM
Waxing Crescent, 22% visible
METAR KLUA 121715Z AUTO 19005KT 10SM BKN085 OVC100 M02/M13 A3009 RMK AO2

10-Day Weather Forecast

Almanac

Astronomy

Feb. 12, 2016 Rise Set
Actual Time
Civil Twilight
Nautical Twilight
Astronomical Twilight
Moon
Length of Visible Light
Length of Day
Tomorrow will be .
, % of the Moon is Illuminated

Today's Extremes

State Highs State Lows

Community

WunderPhotos

Upload Photos

1,892,353 photos uploaded!

WunderBlog® & News

Nearby

Air Quality

  Air Quality AQ Index Pollutant
Not available.

Snow Depth

Station Depth Elevation

Earthquake Activity

City Distance Mag. Time & Date
Minimum magnitude displayed is 2.5.

Coastal Water Temperatures

Place Temperature

Stations

Nearby Weather Stations

Station Location Temp. Windchill Dew Point Humidity Wind Precip. Elev Updated Type
                   

Watches & Warnings

There are currently no watches in effect.